sensor_id;sensor_type;location;lat;lon;timestamp;temperature;humidity
13164;DHT22;6647;53.688;10.746;2022-12-11T00:00:18;-0.70;1.00
13164;DHT22;6647;53.688;10.746;2022-12-11T00:01:39;-0.70;1.00
13164;DHT22;6647;53.688;10.746;2022-12-11T00:03:00;-0.70;1.00
13164;DHT22;6647;53.688;10.746;2022-12-11T00:04:21;-0.70;1.00
13164;DHT22;6647;53.688;10.746;2022-12-11T00:05:43;-0.70;1.00
13164;DHT22;6647;53.688;10.746;2022-12-11T00:07:04;-0.70;1.00
13164;DHT22;6647;53.688;10.746;2022-12-11T00:08:25;-0.70;1.00
13164;DHT22;6647;53.688;10.746;2022-12-11T00:09:46;-0.70;1.00
13164;DHT22;6647;53.688;10.746;2022-12-11T00:11:08;-0.70;1.00
13164;DHT22;6647;53.688;10.746;2022-12-11T00:12:31;-0.70;1.00
13164;DHT22;6647;53.688;10.746;2022-12-11T00:13:52;-0.70;1.00
13164;DHT22;6647;53.688;10.746;2022-12-11T00:15:13;-0.70;1.00
13164;DHT22;6647;53.688;10.746;2022-12-11T00:16:33;-0.70;1.00
13164;DHT22;6647;53.688;10.746;2022-12-11T00:17:55;-0.70;1.00
13164;DHT22;6647;53.688;10.746;2022-12-11T00:19:16;-0.70;1.00
13164;DHT22;6647;53.688;10.746;2022-12-11T00:20:37;-0.70;1.00
13164;DHT22;6647;53.688;10.746;2022-12-11T00:21:58;-0.70;1.00
13164;DHT22;6647;53.688;10.746;2022-12-11T00:23:18;-0.70;1.00
13164;DHT22;6647;53.688;10.746;2022-12-11T00:24:39;-0.70;1.00
13164;DHT22;6647;53.688;10.746;2022-12-11T00:26:07;-0.70;1.00
13164;DHT22;6647;53.688;10.746;2022-12-11T00:27:29;-0.70;1.00
13164;DHT22;6647;53.688;10.746;2022-12-11T00:28:54;-0.70;1.00
13164;DHT22;6647;53.688;10.746;2022-12-11T00:30:15;-0.70;1.00
13164;DHT22;6647;53.688;10.746;2022-12-11T00:31:36;-0.70;1.00
13164;DHT22;6647;53.688;10.746;2022-12-11T00:32:57;-0.70;1.00
13164;DHT22;6647;53.688;10.746;2022-12-11T00:34:18;-0.70;1.00
13164;DHT22;6647;53.688;10.746;2022-12-11T00:35:45;-0.70;1.00
13164;DHT22;6647;53.688;10.746;2022-12-11T00:37:06;-0.70;1.00
13164;DHT22;6647;53.688;10.746;2022-12-11T00:38:27;-0.70;1.00
13164;DHT22;6647;53.688;10.746;2022-12-11T00:39:48;-0.70;1.00
13164;DHT22;6647;53.688;10.746;2022-12-11T00:41:10;-0.70;1.00
13164;DHT22;6647;53.688;10.746;2022-12-11T00:42:31;-0.70;1.00
13164;DHT22;6647;53.688;10.746;2022-12-11T00:43:51;-0.70;1.00
13164;DHT22;6647;53.688;10.746;2022-12-11T00:45:12;-0.70;1.00
13164;DHT22;6647;53.688;10.746;2022-12-11T00:46:33;-0.70;1.00
13164;DHT22;6647;53.688;10.746;2022-12-11T00:47:54;-0.80;1.00
13164;DHT22;6647;53.688;10.746;2022-12-11T00:49:15;-0.80;1.00
13164;DHT22;6647;53.688;10.746;2022-12-11T00:50:36;-0.80;1.00
13164;DHT22;6647;53.688;10.746;2022-12-11T00:51:57;-0.80;1.00
13164;DHT22;6647;53.688;10.746;2022-12-11T00:53:18;-0.80;1.00
13164;DHT22;6647;53.688;10.746;2022-12-11T00:54:38;-0.70;1.00
13164;DHT22;6647;53.688;10.746;2022-12-11T00:55:59;-0.70;1.00
13164;DHT22;6647;53.688;10.746;2022-12-11T00:57:20;-0.70;1.00
13164;DHT22;6647;53.688;10.746;2022-12-11T00:58:41;-0.70;1.00
13164;DHT22;6647;53.688;10.746;2022-12-11T01:00:05;-0.70;1.00
13164;DHT22;6647;53.688;10.746;2022-12-11T01:01:26;-0.70;1.00
13164;DHT22;6647;53.688;10.746;2022-12-11T01:02:48;-0.70;1.00
13164;DHT22;6647;53.688;10.746;2022-12-11T01:04:09;-0.70;1.00
13164;DHT22;6647;53.688;10.746;2022-12-11T01:05:30;-0.70;1.00
13164;DHT22;6647;53.688;10.746;2022-12-11T01:06:51;-0.70;1.00
13164;DHT22;6647;53.688;10.746;2022-12-11T01:08:12;-0.70;1.00
13164;DHT22;6647;53.688;10.746;2022-12-11T01:09:32;-0.70;1.00
13164;DHT22;6647;53.688;10.746;2022-12-11T01:11:14;-0.70;1.00
13164;DHT22;6647;53.688;10.746;2022-12-11T01:12:35;-0.70;1.00
13164;DHT22;6647;53.688;10.746;2022-12-11T01:13:56;-0.70;1.00
13164;DHT22;6647;53.688;10.746;2022-12-11T01:15:18;-0.70;1.00
13164;DHT22;6647;53.688;10.746;2022-12-11T01:16:39;-0.70;1.00
13164;DHT22;6647;53.688;10.746;2022-12-11T01:18:00;-0.70;1.00
13164;DHT22;6647;53.688;10.746;2022-12-11T01:19:21;-0.70;1.00
13164;DHT22;6647;53.688;10.746;2022-12-11T01:20:42;-0.80;1.00
13164;DHT22;6647;53.688;10.746;2022-12-11T01:22:03;-0.70;1.00
13164;DHT22;6647;53.688;10.746;2022-12-11T01:23:24;-0.70;1.00
13164;DHT22;6647;53.688;10.746;2022-12-11T01:24:45;-0.70;1.00
13164;DHT22;6647;53.688;10.746;2022-12-11T01:26:13;-0.70;1.00
13164;DHT22;6647;53.688;10.746;2022-12-11T01:27:35;-0.70;1.00
13164;DHT22;6647;53.688;10.746;2022-12-11T01:28:56;-0.70;1.00
13164;DHT22;6647;53.688;10.746;2022-12-11T01:30:18;-0.70;1.00
13164;DHT22;6647;53.688;10.746;2022-12-11T01:31:39;-0.70;1.00
13164;DHT22;6647;53.688;10.746;2022-12-11T01:33:00;-0.70;1.00
13164;DHT22;6647;53.688;10.746;2022-12-11T01:34:21;-0.70;1.00
13164;DHT22;6647;53.688;10.746;2022-12-11T01:35:42;-0.70;1.00
13164;DHT22;6647;53.688;10.746;2022-12-11T01:37:03;-0.70;1.00
13164;DHT22;6647;53.688;10.746;2022-12-11T01:38:24;-0.70;1.00
13164;DHT22;6647;53.688;10.746;2022-12-11T01:39:45;-0.70;1.00
13164;DHT22;6647;53.688;10.746;2022-12-11T01:41:06;-0.70;1.00
13164;DHT22;6647;53.688;10.746;2022-12-11T01:42:27;-0.70;1.00
13164;DHT22;6647;53.688;10.746;2022-12-11T01:43:59;-0.70;1.00
13164;DHT22;6647;53.688;10.746;2022-12-11T01:45:38;-0.70;1.00
13164;DHT22;6647;53.688;10.746;2022-12-11T01:46:59;-0.70;1.00
13164;DHT22;6647;53.688;10.746;2022-12-11T01:48:24;-0.70;1.00
13164;DHT22;6647;53.688;10.746;2022-12-11T01:49:46;-0.70;1.00
13164;DHT22;6647;53.688;10.746;2022-12-11T01:51:07;-0.70;1.00
13164;DHT22;6647;53.688;10.746;2022-12-11T01:52:28;-0.70;1.00
13164;DHT22;6647;53.688;10.746;2022-12-11T01:53:58;-0.70;1.00
13164;DHT22;6647;53.688;10.746;2022-12-11T01:55:20;-0.70;1.00
13164;DHT22;6647;53.688;10.746;2022-12-11T01:56:44;-0.60;1.00
13164;DHT22;6647;53.688;10.746;2022-12-11T01:58:06;-0.70;1.00
13164;DHT22;6647;53.688;10.746;2022-12-11T01:59:30;-0.70;1.00
13164;DHT22;6647;53.688;10.746;2022-12-11T02:00:53;-0.70;1.00
13164;DHT22;6647;53.688;10.746;2022-12-11T02:02:25;-0.70;1.00
13164;DHT22;6647;53.688;10.746;2022-12-11T02:03:46;-0.70;1.00
13164;DHT22;6647;53.688;10.746;2022-12-11T02:05:08;-0.70;1.00
13164;DHT22;6647;53.688;10.746;2022-12-11T02:06:36;-0.70;1.00
13164;DHT22;6647;53.688;10.746;2022-12-11T02:07:59;-0.70;1.00
13164;DHT22;6647;53.688;10.746;2022-12-11T02:09:27;-0.70;1.00
13164;DHT22;6647;53.688;10.746;2022-12-11T02:11:05;-0.70;1.00
13164;DHT22;6647;53.688;10.746;2022-12-11T02:12:39;-0.70;1.00
13164;DHT22;6647;53.688;10.746;2022-12-11T02:14:15;-0.80;1.00
13164;DHT22;6647;53.688;10.746;2022-12-11T02:15:56;-0.80;1.00
13164;DHT22;6647;53.688;10.746;2022-12-11T02:19:17;-0.80;1.00
13164;DHT22;6647;53.688;10.746;2022-12-11T02:21:22;-0.80;1.00
13164;DHT22;6647;53.688;10.746;2022-12-11T02:24:13;-0.80;1.00
13164;DHT22;6647;53.688;10.746;2022-12-11T02:25:56;-0.80;1.00
13164;DHT22;6647;53.688;10.746;2022-12-11T02:27:39;-0.80;1.00
13164;DHT22;6647;53.688;10.746;2022-12-11T02:29:08;-0.90;1.00
13164;DHT22;6647;53.688;10.746;2022-12-11T02:30:33;-0.80;1.00
13164;DHT22;6647;53.688;10.746;2022-12-11T02:32:02;-0.90;1.00
13164;DHT22;6647;53.688;10.746;2022-12-11T02:33:40;-0.90;1.00
13164;DHT22;6647;53.688;10.746;2022-12-11T02:36:34;-0.90;1.00
13164;DHT22;6647;53.688;10.746;2022-12-11T02:38:04;-0.90;1.00
13164;DHT22;6647;53.688;10.746;2022-12-11T02:39:28;-0.90;1.00
13164;DHT22;6647;53.688;10.746;2022-12-11T02:40:52;-0.90;1.00
13164;DHT22;6647;53.688;10.746;2022-12-11T02:42:15;-0.90;1.00
13164;DHT22;6647;53.688;10.746;2022-12-11T02:43:36;-0.90;1.00
13164;DHT22;6647;53.688;10.746;2022-12-11T02:44:59;-0.90;1.00
13164;DHT22;6647;53.688;10.746;2022-12-11T02:46:21;-0.90;1.00
13164;DHT22;6647;53.688;10.746;2022-12-11T02:47:43;-0.90;1.00
13164;DHT22;6647;53.688;10.746;2022-12-11T02:49:06;-0.90;1.00
13164;DHT22;6647;53.688;10.746;2022-12-11T02:50:28;-0.90;1.00
13164;DHT22;6647;53.688;10.746;2022-12-11T02:51:50;-0.90;1.00
13164;DHT22;6647;53.688;10.746;2022-12-11T02:53:15;-0.90;1.00
13164;DHT22;6647;53.688;10.746;2022-12-11T02:54:38;-0.90;1.00
13164;DHT22;6647;53.688;10.746;2022-12-11T02:56:07;-0.90;1.00
13164;DHT22;6647;53.688;10.746;2022-12-11T02:57:44;-0.90;1.00
13164;DHT22;6647;53.688;10.746;2022-12-11T02:59:12;-1.00;1.00
13164;DHT22;6647;53.688;10.746;2022-12-11T03:00:35;-1.00;1.00
13164;DHT22;6647;53.688;10.746;2022-12-11T03:01:56;-1.10;1.00
13164;DHT22;6647;53.688;10.746;2022-12-11T03:03:17;-1.10;1.00
13164;DHT22;6647;53.688;10.746;2022-12-11T03:04:38;-1.10;1.00
13164;DHT22;6647;53.688;10.746;2022-12-11T03:06:00;-1.10;1.00
13164;DHT22;6647;53.688;10.746;2022-12-11T03:07:28;-1.10;1.00
13164;DHT22;6647;53.688;10.746;2022-12-11T03:08:51;-1.10;1.00
13164;DHT22;6647;53.688;10.746;2022-12-11T03:10:14;-1.10;1.00
13164;DHT22;6647;53.688;10.746;2022-12-11T03:11:36;-1.20;1.00
13164;DHT22;6647;53.688;10.746;2022-12-11T03:12:58;-1.20;1.00
13164;DHT22;6647;53.688;10.746;2022-12-11T03:14:19;-1.20;1.00
13164;DHT22;6647;53.688;10.746;2022-12-11T03:17:39;-1.30;1.00
13164;DHT22;6647;53.688;10.746;2022-12-11T03:20:35;-1.30;1.00
13164;DHT22;6647;53.688;10.746;2022-12-11T03:23:43;-1.30;1.00
13164;DHT22;6647;53.688;10.746;2022-12-11T03:25:11;-1.30;1.00
13164;DHT22;6647;53.688;10.746;2022-12-11T03:26:39;-1.30;1.00
13164;DHT22;6647;53.688;10.746;2022-12-11T03:28:14;-1.40;1.00
13164;DHT22;6647;53.688;10.746;2022-12-11T03:29:39;-1.30;1.00
13164;DHT22;6647;53.688;10.746;2022-12-11T03:31:04;-1.40;1.00
13164;DHT22;6647;53.688;10.746;2022-12-11T03:32:57;-1.40;1.00
13164;DHT22;6647;53.688;10.746;2022-12-11T03:34:32;-1.40;1.00
13164;DHT22;6647;53.688;10.746;2022-12-11T03:36:02;-1.40;1.00
13164;DHT22;6647;53.688;10.746;2022-12-11T03:37:27;-1.40;1.00
13164;DHT22;6647;53.688;10.746;2022-12-11T03:38:55;-1.50;1.00
13164;DHT22;6647;53.688;10.746;2022-12-11T03:40:20;-1.50;1.00
13164;DHT22;6647;53.688;10.746;2022-12-11T03:41:42;-1.50;1.00
13164;DHT22;6647;53.688;10.746;2022-12-11T03:43:04;-1.60;1.00
13164;DHT22;6647;53.688;10.746;2022-12-11T03:44:27;-1.60;1.00
13164;DHT22;6647;53.688;10.746;2022-12-11T03:45:49;-1.60;1.00
13164;DHT22;6647;53.688;10.746;2022-12-11T03:47:16;-1.60;1.00
13164;DHT22;6647;53.688;10.746;2022-12-11T03:48:39;-1.60;1.00
13164;DHT22;6647;53.688;10.746;2022-12-11T03:50:04;-1.60;1.00
13164;DHT22;6647;53.688;10.746;2022-12-11T03:51:27;-1.60;1.00
13164;DHT22;6647;53.688;10.746;2022-12-11T03:52:49;-1.60;1.00
13164;DHT22;6647;53.688;10.746;2022-12-11T03:54:10;-1.70;1.00
13164;DHT22;6647;53.688;10.746;2022-12-11T03:55:32;-1.70;1.00
13164;DHT22;6647;53.688;10.746;2022-12-11T03:56:56;-1.80;1.00
13164;DHT22;6647;53.688;10.746;2022-12-11T03:58:17;-1.80;1.00
13164;DHT22;6647;53.688;10.746;2022-12-11T03:59:38;-1.90;1.00
13164;DHT22;6647;53.688;10.746;2022-12-11T04:00:59;-1.90;1.00
13164;DHT22;6647;53.688;10.746;2022-12-11T04:02:20;-1.90;1.00
13164;DHT22;6647;53.688;10.746;2022-12-11T04:03:41;-2.00;1.00
13164;DHT22;6647;53.688;10.746;2022-12-11T04:05:02;-1.90;1.00
13164;DHT22;6647;53.688;10.746;2022-12-11T04:06:22;-2.00;1.00
13164;DHT22;6647;53.688;10.746;2022-12-11T04:07:43;-2.00;1.00
13164;DHT22;6647;53.688;10.746;2022-12-11T04:09:04;-1.90;1.00
13164;DHT22;6647;53.688;10.746;2022-12-11T04:10:25;-1.90;1.00
13164;DHT22;6647;53.688;10.746;2022-12-11T04:11:46;-1.90;1.00
13164;DHT22;6647;53.688;10.746;2022-12-11T04:13:08;-1.90;1.00
13164;DHT22;6647;53.688;10.746;2022-12-11T04:14:29;-1.90;1.00
13164;DHT22;6647;53.688;10.746;2022-12-11T04:16:09;-2.00;1.00
13164;DHT22;6647;53.688;10.746;2022-12-11T04:17:38;-2.00;1.00
13164;DHT22;6647;53.688;10.746;2022-12-11T04:19:18;-2.00;1.00
13164;DHT22;6647;53.688;10.746;2022-12-11T04:20:58;-2.00;1.00
13164;DHT22;6647;53.688;10.746;2022-12-11T04:22:37;-2.00;1.00
13164;DHT22;6647;53.688;10.746;2022-12-11T04:23:58;-2.00;1.00
13164;DHT22;6647;53.688;10.746;2022-12-11T04:25:39;-2.00;1.00
13164;DHT22;6647;53.688;10.746;2022-12-11T04:27:00;-2.00;1.00
13164;DHT22;6647;53.688;10.746;2022-12-11T04:28:21;-2.00;1.00
13164;DHT22;6647;53.688;10.746;2022-12-11T04:29:42;-2.10;1.00
13164;DHT22;6647;53.688;10.746;2022-12-11T04:31:03;-2.10;1.00
13164;DHT22;6647;53.688;10.746;2022-12-11T04:32:24;-2.10;1.00
13164;DHT22;6647;53.688;10.746;2022-12-11T04:33:45;-2.10;1.00
13164;DHT22;6647;53.688;10.746;2022-12-11T04:35:08;-2.10;1.00
13164;DHT22;6647;53.688;10.746;2022-12-11T04:36:30;-2.20;1.00
13164;DHT22;6647;53.688;10.746;2022-12-11T04:37:51;-2.20;1.00
13164;DHT22;6647;53.688;10.746;2022-12-11T04:39:12;-2.20;1.00
13164;DHT22;6647;53.688;10.746;2022-12-11T04:40:33;-2.20;1.00
13164;DHT22;6647;53.688;10.746;2022-12-11T04:41:54;-2.20;1.00
13164;DHT22;6647;53.688;10.746;2022-12-11T04:43:15;-2.30;1.00
13164;DHT22;6647;53.688;10.746;2022-12-11T04:44:35;-2.30;1.00
13164;DHT22;6647;53.688;10.746;2022-12-11T04:46:18;-2.30;1.00
13164;DHT22;6647;53.688;10.746;2022-12-11T04:47:40;-2.30;1.00
13164;DHT22;6647;53.688;10.746;2022-12-11T04:49:01;-2.30;1.00
13164;DHT22;6647;53.688;10.746;2022-12-11T04:50:22;-2.40;1.00
13164;DHT22;6647;53.688;10.746;2022-12-11T04:51:42;-2.40;1.00
13164;DHT22;6647;53.688;10.746;2022-12-11T04:53:03;-2.40;1.00
13164;DHT22;6647;53.688;10.746;2022-12-11T04:54:24;-2.40;1.00
13164;DHT22;6647;53.688;10.746;2022-12-11T04:55:45;-2.40;1.00
13164;DHT22;6647;53.688;10.746;2022-12-11T04:57:06;-2.40;1.00
13164;DHT22;6647;53.688;10.746;2022-12-11T04:58:27;-2.40;1.00
13164;DHT22;6647;53.688;10.746;2022-12-11T04:59:48;-2.40;1.00
13164;DHT22;6647;53.688;10.746;2022-12-11T05:01:11;-2.40;1.00
13164;DHT22;6647;53.688;10.746;2022-12-11T05:02:37;-2.40;1.00
13164;DHT22;6647;53.688;10.746;2022-12-11T05:03:58;-2.40;1.00
13164;DHT22;6647;53.688;10.746;2022-12-11T05:05:19;-2.40;1.00
13164;DHT22;6647;53.688;10.746;2022-12-11T05:06:40;-2.40;1.00
13164;DHT22;6647;53.688;10.746;2022-12-11T05:08:01;-2.40;1.00
13164;DHT22;6647;53.688;10.746;2022-12-11T05:09:22;-2.40;1.00
13164;DHT22;6647;53.688;10.746;2022-12-11T05:10:43;-2.40;1.00
13164;DHT22;6647;53.688;10.746;2022-12-11T05:12:04;-2.40;1.00
13164;DHT22;6647;53.688;10.746;2022-12-11T05:13:26;-2.40;1.00
13164;DHT22;6647;53.688;10.746;2022-12-11T05:14:51;-2.40;1.00
13164;DHT22;6647;53.688;10.746;2022-12-11T05:16:14;-2.40;1.00
13164;DHT22;6647;53.688;10.746;2022-12-11T05:17:35;-2.40;1.00
13164;DHT22;6647;53.688;10.746;2022-12-11T05:18:56;-2.40;1.00
13164;DHT22;6647;53.688;10.746;2022-12-11T05:20:17;-2.40;1.00
13164;DHT22;6647;53.688;10.746;2022-12-11T05:21:38;-2.40;1.00
13164;DHT22;6647;53.688;10.746;2022-12-11T05:22:59;-2.40;1.00
13164;DHT22;6647;53.688;10.746;2022-12-11T05:24:19;-2.40;1.00
13164;DHT22;6647;53.688;10.746;2022-12-11T05:25:40;-2.40;1.00
13164;DHT22;6647;53.688;10.746;2022-12-11T05:27:01;-2.50;1.00
13164;DHT22;6647;53.688;10.746;2022-12-11T05:28:23;-2.50;1.00
13164;DHT22;6647;53.688;10.746;2022-12-11T05:29:44;-2.50;1.00
13164;DHT22;6647;53.688;10.746;2022-12-11T05:31:17;-2.50;1.00
13164;DHT22;6647;53.688;10.746;2022-12-11T05:32:38;-2.50;1.00
13164;DHT22;6647;53.688;10.746;2022-12-11T05:33:59;-2.50;1.00
13164;DHT22;6647;53.688;10.746;2022-12-11T05:35:20;-2.50;1.00
13164;DHT22;6647;53.688;10.746;2022-12-11T05:36:41;-2.50;1.00
13164;DHT22;6647;53.688;10.746;2022-12-11T05:38:02;-2.50;1.00
13164;DHT22;6647;53.688;10.746;2022-12-11T05:39:23;-2.50;1.00
13164;DHT22;6647;53.688;10.746;2022-12-11T05:40:44;-2.50;1.00
13164;DHT22;6647;53.688;10.746;2022-12-11T05:42:05;-2.50;1.00
13164;DHT22;6647;53.688;10.746;2022-12-11T05:43:27;-2.50;1.00
13164;DHT22;6647;53.688;10.746;2022-12-11T05:44:48;-2.50;1.00
13164;DHT22;6647;53.688;10.746;2022-12-11T05:46:17;-2.60;1.00
13164;DHT22;6647;53.688;10.746;2022-12-11T05:47:39;-2.60;1.00
13164;DHT22;6647;53.688;10.746;2022-12-11T05:49:00;-2.60;1.00
13164;DHT22;6647;53.688;10.746;2022-12-11T05:50:21;-2.60;1.00
13164;DHT22;6647;53.688;10.746;2022-12-11T05:51:42;-2.60;1.00
13164;DHT22;6647;53.688;10.746;2022-12-11T05:53:03;-2.60;1.00
13164;DHT22;6647;53.688;10.746;2022-12-11T05:54:24;-2.60;1.00
13164;DHT22;6647;53.688;10.746;2022-12-11T05:55:45;-2.60;1.00
13164;DHT22;6647;53.688;10.746;2022-12-11T05:57:06;-2.60;1.00
13164;DHT22;6647;53.688;10.746;2022-12-11T05:58:27;-2.70;1.00
13164;DHT22;6647;53.688;10.746;2022-12-11T05:59:48;-2.70;1.00
13164;DHT22;6647;53.688;10.746;2022-12-11T06:01:32;-2.70;1.00
13164;DHT22;6647;53.688;10.746;2022-12-11T06:02:51;-2.70;1.00
13164;DHT22;6647;53.688;10.746;2022-12-11T06:04:12;-2.70;1.00
13164;DHT22;6647;53.688;10.746;2022-12-11T06:05:40;-2.70;1.00
13164;DHT22;6647;53.688;10.746;2022-12-11T06:07:01;-2.70;1.00
13164;DHT22;6647;53.688;10.746;2022-12-11T06:08:22;-2.70;1.00
13164;DHT22;6647;53.688;10.746;2022-12-11T06:09:43;-2.80;1.00
13164;DHT22;6647;53.688;10.746;2022-12-11T06:11:05;-2.80;1.00
13164;DHT22;6647;53.688;10.746;2022-12-11T06:12:26;-2.80;1.00
13164;DHT22;6647;53.688;10.746;2022-12-11T06:13:48;-2.80;1.00
13164;DHT22;6647;53.688;10.746;2022-12-11T06:15:09;-2.80;1.00
13164;DHT22;6647;53.688;10.746;2022-12-11T06:16:31;-2.80;1.00
13164;DHT22;6647;53.688;10.746;2022-12-11T06:17:53;-2.80;1.00
13164;DHT22;6647;53.688;10.746;2022-12-11T06:19:14;-2.80;1.00
13164;DHT22;6647;53.688;10.746;2022-12-11T06:20:36;-2.80;1.00
13164;DHT22;6647;53.688;10.746;2022-12-11T06:21:57;-2.90;1.00
13164;DHT22;6647;53.688;10.746;2022-12-11T06:23:18;-2.90;1.00
13164;DHT22;6647;53.688;10.746;2022-12-11T06:24:39;-2.90;1.00
13164;DHT22;6647;53.688;10.746;2022-12-11T06:26:02;-2.90;1.00
13164;DHT22;6647;53.688;10.746;2022-12-11T06:27:23;-2.90;1.00
13164;DHT22;6647;53.688;10.746;2022-12-11T06:28:45;-2.90;1.00
13164;DHT22;6647;53.688;10.746;2022-12-11T06:30:06;-2.90;1.00
13164;DHT22;6647;53.688;10.746;2022-12-11T06:31:27;-2.90;1.00
13164;DHT22;6647;53.688;10.746;2022-12-11T06:32:48;-2.90;1.00
13164;DHT22;6647;53.688;10.746;2022-12-11T06:34:11;-2.90;1.00
13164;DHT22;6647;53.688;10.746;2022-12-11T06:35:32;-2.90;1.00
13164;DHT22;6647;53.688;10.746;2022-12-11T06:36:53;-2.90;1.00
13164;DHT22;6647;53.688;10.746;2022-12-11T06:38:14;-2.90;1.00
13164;DHT22;6647;53.688;10.746;2022-12-11T06:39:35;-2.90;1.00
13164;DHT22;6647;53.688;10.746;2022-12-11T06:40:57;-2.90;1.00
13164;DHT22;6647;53.688;10.746;2022-12-11T06:42:18;-2.90;1.00
13164;DHT22;6647;53.688;10.746;2022-12-11T06:43:39;-2.90;1.00
13164;DHT22;6647;53.688;10.746;2022-12-11T06:45:02;-2.90;1.00
13164;DHT22;6647;53.688;10.746;2022-12-11T06:46:23;-2.90;1.00
13164;DHT22;6647;53.688;10.746;2022-12-11T06:47:44;-3.00;1.00
13164;DHT22;6647;53.688;10.746;2022-12-11T06:49:05;-3.00;1.00
13164;DHT22;6647;53.688;10.746;2022-12-11T06:50:26;-3.00;1.00
13164;DHT22;6647;53.688;10.746;2022-12-11T06:51:46;-3.00;1.00
13164;DHT22;6647;53.688;10.746;2022-12-11T06:53:10;-3.00;1.00
13164;DHT22;6647;53.688;10.746;2022-12-11T06:54:31;-3.00;1.00
13164;DHT22;6647;53.688;10.746;2022-12-11T06:55:51;-3.00;1.00
13164;DHT22;6647;53.688;10.746;2022-12-11T06:57:12;-3.00;1.00
13164;DHT22;6647;53.688;10.746;2022-12-11T06:58:35;-3.00;1.00
13164;DHT22;6647;53.688;10.746;2022-12-11T06:59:56;-3.00;1.00
13164;DHT22;6647;53.688;10.746;2022-12-11T07:01:22;-2.90;1.00
13164;DHT22;6647;53.688;10.746;2022-12-11T07:02:43;-3.00;1.00
13164;DHT22;6647;53.688;10.746;2022-12-11T07:04:04;-3.00;1.00
13164;DHT22;6647;53.688;10.746;2022-12-11T07:05:25;-2.90;1.00
13164;DHT22;6647;53.688;10.746;2022-12-11T07:06:46;-2.90;1.00
13164;DHT22;6647;53.688;10.746;2022-12-11T07:08:08;-2.90;1.00
13164;DHT22;6647;53.688;10.746;2022-12-11T07:09:29;-2.90;1.00
13164;DHT22;6647;53.688;10.746;2022-12-11T07:10:50;-3.00;1.00
13164;DHT22;6647;53.688;10.746;2022-12-11T07:12:11;-3.00;1.00
13164;DHT22;6647;53.688;10.746;2022-12-11T07:13:32;-3.10;1.00
13164;DHT22;6647;53.688;10.746;2022-12-11T07:14:53;-3.20;1.00
13164;DHT22;6647;53.688;10.746;2022-12-11T07:16:15;-3.30;1.00
13164;DHT22;6647;53.688;10.746;2022-12-11T07:17:37;-3.30;1.00
13164;DHT22;6647;53.688;10.746;2022-12-11T07:18:58;-3.30;1.00
13164;DHT22;6647;53.688;10.746;2022-12-11T07:20:19;-3.30;1.00
13164;DHT22;6647;53.688;10.746;2022-12-11T07:21:40;-3.30;1.00
13164;DHT22;6647;53.688;10.746;2022-12-11T07:23:00;-3.30;1.00
13164;DHT22;6647;53.688;10.746;2022-12-11T07:24:21;-3.40;1.00
13164;DHT22;6647;53.688;10.746;2022-12-11T07:25:43;-3.50;1.00
13164;DHT22;6647;53.688;10.746;2022-12-11T07:27:04;-3.60;1.00
13164;DHT22;6647;53.688;10.746;2022-12-11T07:28:25;-3.60;1.00
13164;DHT22;6647;53.688;10.746;2022-12-11T07:29:46;-3.60;1.00
13164;DHT22;6647;53.688;10.746;2022-12-11T07:31:09;-3.60;1.00
13164;DHT22;6647;53.688;10.746;2022-12-11T07:32:30;-3.60;1.00
13164;DHT22;6647;53.688;10.746;2022-12-11T07:33:58;-3.60;1.00
13164;DHT22;6647;53.688;10.746;2022-12-11T07:35:19;-3.60;1.00
13164;DHT22;6647;53.688;10.746;2022-12-11T07:36:41;-3.70;1.00
13164;DHT22;6647;53.688;10.746;2022-12-11T07:38:03;-3.80;1.00
13164;DHT22;6647;53.688;10.746;2022-12-11T07:39:24;-3.80;1.00
13164;DHT22;6647;53.688;10.746;2022-12-11T07:40:45;-3.90;1.00
13164;DHT22;6647;53.688;10.746;2022-12-11T07:42:06;-3.90;1.00
13164;DHT22;6647;53.688;10.746;2022-12-11T07:43:26;-4.00;1.00
13164;DHT22;6647;53.688;10.746;2022-12-11T07:44:47;-4.10;1.00
13164;DHT22;6647;53.688;10.746;2022-12-11T07:46:15;-4.10;1.00
13164;DHT22;6647;53.688;10.746;2022-12-11T07:47:36;-4.20;1.00
13164;DHT22;6647;53.688;10.746;2022-12-11T07:48:57;-4.20;1.00
13164;DHT22;6647;53.688;10.746;2022-12-11T07:50:20;-4.30;1.00
13164;DHT22;6647;53.688;10.746;2022-12-11T07:51:42;-4.30;1.00
13164;DHT22;6647;53.688;10.746;2022-12-11T07:53:03;-4.30;1.00
13164;DHT22;6647;53.688;10.746;2022-12-11T07:54:24;-4.20;1.00
13164;DHT22;6647;53.688;10.746;2022-12-11T07:55:44;-4.20;1.00
13164;DHT22;6647;53.688;10.746;2022-12-11T07:57:05;-4.20;1.00
13164;DHT22;6647;53.688;10.746;2022-12-11T07:58:26;-4.30;1.00
13164;DHT22;6647;53.688;10.746;2022-12-11T07:59:47;-4.20;1.00
13164;DHT22;6647;53.688;10.746;2022-12-11T08:01:13;-4.20;1.00
13164;DHT22;6647;53.688;10.746;2022-12-11T08:02:36;-4.20;1.00
13164;DHT22;6647;53.688;10.746;2022-12-11T08:03:57;-4.30;1.00
13164;DHT22;6647;53.688;10.746;2022-12-11T08:05:18;-4.30;1.00
13164;DHT22;6647;53.688;10.746;2022-12-11T08:06:39;-4.30;1.00
13164;DHT22;6647;53.688;10.746;2022-12-11T08:08:00;-4.40;1.00
13164;DHT22;6647;53.688;10.746;2022-12-11T08:09:21;-4.40;1.00
13164;DHT22;6647;53.688;10.746;2022-12-11T08:10:42;-4.40;1.00
13164;DHT22;6647;53.688;10.746;2022-12-11T08:12:03;-4.40;1.00
13164;DHT22;6647;53.688;10.746;2022-12-11T08:13:24;-4.40;1.00
13164;DHT22;6647;53.688;10.746;2022-12-11T08:14:45;-4.40;1.00
13164;DHT22;6647;53.688;10.746;2022-12-11T08:16:08;-4.40;1.00
13164;DHT22;6647;53.688;10.746;2022-12-11T08:17:30;-4.30;1.00
13164;DHT22;6647;53.688;10.746;2022-12-11T08:18:51;-4.30;1.00
13164;DHT22;6647;53.688;10.746;2022-12-11T08:20:12;-4.30;1.00
13164;DHT22;6647;53.688;10.746;2022-12-11T08:21:33;-4.30;1.00
13164;DHT22;6647;53.688;10.746;2022-12-11T08:22:54;-4.30;1.00
13164;DHT22;6647;53.688;10.746;2022-12-11T08:24:15;-4.30;1.00
13164;DHT22;6647;53.688;10.746;2022-12-11T08:25:40;-4.30;1.00
13164;DHT22;6647;53.688;10.746;2022-12-11T08:27:01;-4.30;1.00
13164;DHT22;6647;53.688;10.746;2022-12-11T08:28:21;-4.20;1.00
13164;DHT22;6647;53.688;10.746;2022-12-11T08:29:42;-4.20;1.00
13164;DHT22;6647;53.688;10.746;2022-12-11T08:31:05;-4.20;1.00
13164;DHT22;6647;53.688;10.746;2022-12-11T08:32:27;-4.10;1.00
13164;DHT22;6647;53.688;10.746;2022-12-11T08:33:49;-4.10;1.00
13164;DHT22;6647;53.688;10.746;2022-12-11T08:35:10;-4.10;1.00
13164;DHT22;6647;53.688;10.746;2022-12-11T08:36:31;-4.10;1.00
13164;DHT22;6647;53.688;10.746;2022-12-11T08:37:52;-4.10;1.00
13164;DHT22;6647;53.688;10.746;2022-12-11T08:39:13;-4.00;1.00
13164;DHT22;6647;53.688;10.746;2022-12-11T08:40:34;-4.00;1.00
13164;DHT22;6647;53.688;10.746;2022-12-11T08:41:54;-4.00;1.00
13164;DHT22;6647;53.688;10.746;2022-12-11T08:43:16;-4.00;1.00
13164;DHT22;6647;53.688;10.746;2022-12-11T08:44:37;-3.90;1.00
13164;DHT22;6647;53.688;10.746;2022-12-11T08:45:58;-3.90;1.00
13164;DHT22;6647;53.688;10.746;2022-12-11T08:47:19;-3.90;1.00
13164;DHT22;6647;53.688;10.746;2022-12-11T08:48:41;-3.90;1.00
13164;DHT22;6647;53.688;10.746;2022-12-11T08:50:02;-3.80;1.00
13164;DHT22;6647;53.688;10.746;2022-12-11T08:51:25;-3.80;1.00
13164;DHT22;6647;53.688;10.746;2022-12-11T08:52:46;-3.80;1.00
13164;DHT22;6647;53.688;10.746;2022-12-11T08:54:08;-3.80;1.00
13164;DHT22;6647;53.688;10.746;2022-12-11T08:55:31;-3.80;1.00
13164;DHT22;6647;53.688;10.746;2022-12-11T08:56:51;-3.70;1.00
13164;DHT22;6647;53.688;10.746;2022-12-11T08:58:12;-3.70;1.00
13164;DHT22;6647;53.688;10.746;2022-12-11T08:59:33;-3.70;1.00
13164;DHT22;6647;53.688;10.746;2022-12-11T09:00:55;-3.70;1.00
13164;DHT22;6647;53.688;10.746;2022-12-11T09:02:16;-3.60;1.00